Time;durP1;ratioP1;P1;durP2;ratioP2;P2;SDS_P1;SDS_P2;PMS_P1;PMS_P2;Temp;Humidity;BMP_temperature;BMP_pressure;BME280_temperature;BME280_humidity;BME280_pressure;Samples;Min_cycle;Max_cycle;Signal;HPM_P1;HPM_P2
2023/05/28 00:00:06;;;;;;;11.63;8.53;;;;;;;;;;5144173;27;20922;-80
2023/05/28 00:02:36;;;;;;;12.80;8.13;;;;;;;;;;5143400;27;20446;-78
2023/05/28 00:05:13;;;;;;;11.70;9.03;;;;;;;;;;5143228;27;20426;-79
2023/05/28 00:07:41;;;;;;;11.20;8.10;;;;;;;;;;5147409;28;20490;-75
2023/05/28 00:10:09;;;;;;;12.33;8.33;;;;;;;;;;5143892;27;20461;-77
2023/05/28 00:12:46;;;;;;;9.57;7.53;;;;;;;;;;5139495;27;20450;-76
2023/05/28 00:15:14;;;;;;;9.90;7.30;;;;;;;;;;5121277;28;20506;-77
2023/05/28 00:17:43;;;;;;;8.57;7.50;;;;;;;;;;5121530;28;20427;-78
2023/05/28 00:20:16;;;;;;;9.83;6.67;;;;;;;;;;5127039;27;20927;-76
2023/05/28 00:23:09;;;;;;;9.30;7.33;;;;;;;;;;5141703;27;20442;-76
2023/05/28 00:25:45;;;;;;;10.70;7.10;;;;;;;;;;5124868;28;20445;-77
2023/05/28 00:28:13;;;;;;;9.03;6.83;;;;;;;;;;5127608;27;21045;-76
2023/05/28 00:30:41;;;;;;;7.93;7.13;;;;;;;;;;5123406;28;20457;-76
2023/05/28 00:33:10;;;;;;;8.17;7.10;;;;;;;;;;5122082;28;20634;-77
2023/05/28 00:35:39;;;;;;;10.63;7.67;;;;;;;;;;5113234;28;20637;-76
2023/05/28 00:38:10;;;;;;;8.33;7.40;;;;;;;;;;5111149;28;20524;-77
2023/05/28 00:40:44;;;;;;;10.67;7.60;;;;;;;;;;5116378;28;20498;-76
2023/05/28 00:43:12;;;;;;;9.17;7.87;;;;;;;;;;5132493;27;20496;-78
2023/05/28 00:45:40;;;;;;;8.37;7.10;;;;;;;;;;5129458;27;20452;-76
2023/05/28 00:48:07;;;;;;;8.80;7.03;;;;;;;;;;5138122;27;20469;-78
2023/05/28 00:50:38;;;;;;;10.60;7.50;;;;;;;;;;5138243;27;20484;-79
2023/05/28 00:53:06;;;;;;;8.10;7.30;;;;;;;;;;5127124;27;20498;-77
2023/05/28 00:55:35;;;;;;;9.23;7.17;;;;;;;;;;5125146;27;20545;-76
2023/05/28 00:58:05;;;;;;;8.70;7.00;;;;;;;;;;5133552;27;20434;-76
2023/05/28 01:00:45;;;;;;;8.33;6.70;;;;;;;;;;5141266;27;20472;-77
2023/05/28 01:03:13;;;;;;;10.23;7.07;;;;;;;;;;5141594;27;20481;-76
2023/05/28 01:05:43;;;;;;;9.97;7.90;;;;;;;;;;5141403;27;20450;-77
2023/05/28 01:08:11;;;;;;;9.53;7.17;;;;;;;;;;5141771;27;20505;-76
2023/05/28 01:10:39;;;;;;;9.70;7.30;;;;;;;;;;5143624;27;20558;-77
2023/05/28 01:13:09;;;;;;;10.40;7.60;;;;;;;;;;5142925;27;20448;-78
2023/05/28 01:15:37;;;;;;;8.80;7.17;;;;;;;;;;5144306;27;20446;-76
2023/05/28 01:18:06;;;;;;;8.20;7.30;;;;;;;;;;5144400;27;20468;-76
2023/05/28 01:20:36;;;;;;;7.77;6.97;;;;;;;;;;5128551;27;20480;-76
2023/05/28 01:23:10;;;;;;;11.00;7.00;;;;;;;;;;5123378;28;20817;-75
2023/05/28 01:25:46;;;;;;;7.20;6.50;;;;;;;;;;5121553;28;20544;-77
2023/05/28 01:28:15;;;;;;;11.33;7.70;;;;;;;;;;5121849;28;20539;-76
2023/05/28 01:30:43;;;;;;;11.23;6.90;;;;;;;;;;5120370;27;20503;-76
2023/05/28 01:33:12;;;;;;;13.43;6.93;;;;;;;;;;5119384;28;20461;-77
2023/05/28 01:35:43;;;;;;;11.83;7.33;;;;;;;;;;5129217;27;20478;-79
2023/05/28 01:38:11;;;;;;;10.27;6.90;;;;;;;;;;5141189;27;20445;-77
2023/05/28 01:40:41;;;;;;;9.73;7.07;;;;;;;;;;5148344;27;20471;-77
2023/05/28 01:43:10;;;;;;;8.67;6.33;;;;;;;;;;5141564;27;20460;-77
2023/05/28 01:45:38;;;;;;;7.80;6.60;;;;;;;;;;5140448;27;20506;-78
2023/05/28 01:48:07;;;;;;;8.40;6.20;;;;;;;;;;5142299;27;20466;-77
2023/05/28 01:50:35;;;;;;;9.50;6.50;;;;;;;;;;5142829;27;20466;-76
2023/05/28 01:53:05;;;;;;;9.23;7.00;;;;;;;;;;5138984;27;20454;-76
2023/05/28 01:55:36;;;;;;;7.50;6.17;;;;;;;;;;5138507;27;20513;-75
2023/05/28 01:58:08;;;;;;;8.10;7.30;;;;;;;;;;5137006;27;20445;-77
2023/05/28 02:00:37;;;;;;;7.53;6.73;;;;;;;;;;5136924;27;20838;-76
2023/05/28 02:03:06;;;;;;;10.00;6.73;;;;;;;;;;5136953;27;20886;-76
2023/05/28 02:05:36;;;;;;;9.27;7.00;;;;;;;;;;5138103;27;20797;-76
2023/05/28 02:08:04;;;;;;;8.50;7.40;;;;;;;;;;5135986;27;21007;-77
2023/05/28 02:10:32;;;;;;;7.67;6.23;;;;;;;;;;5136434;27;20478;-77
2023/05/28 02:13:00;;;;;;;7.67;6.77;;;;;;;;;;5136120;27;20827;-76
2023/05/28 02:15:29;;;;;;;9.90;6.50;;;;;;;;;;5136743;27;20522;-77
2023/05/28 02:17:57;;;;;;;9.10;6.97;;;;;;;;;;5136961;27;20900;-76
2023/05/28 02:20:25;;;;;;;10.80;7.07;;;;;;;;;;5136827;27;20462;-77
2023/05/28 02:22:55;;;;;;;9.37;6.40;;;;;;;;;;5137902;27;20442;-76
2023/05/28 02:25:24;;;;;;;9.20;7.07;;;;;;;;;;5138660;27;20446;-78
2023/05/28 02:27:52;;;;;;;8.90;7.07;;;;;;;;;;5138661;27;20514;-77
2023/05/28 02:30:20;;;;;;;7.87;7.00;;;;;;;;;;5138152;27;20480;-76
2023/05/28 02:32:49;;;;;;;9.43;6.80;;;;;;;;;;5133831;27;20933;-78
2023/05/28 02:35:18;;;;;;;7.30;6.40;;;;;;;;;;5133421;27;20533;-79
2023/05/28 02:37:46;;;;;;;10.03;7.03;;;;;;;;;;5133604;27;20816;-79
2023/05/28 02:40:19;;;;;;;10.00;7.67;;;;;;;;;;5134228;27;20473;-76
2023/05/28 02:42:48;;;;;;;11.17;7.53;;;;;;;;;;5135212;27;20855;-77
2023/05/28 02:45:22;;;;;;;8.00;6.83;;;;;;;;;;5137800;27;20461;-78
2023/05/28 02:47:53;;;;;;;11.20;6.90;;;;;;;;;;5141415;27;20779;-76
2023/05/28 02:50:24;;;;;;;9.00;7.13;;;;;;;;;;5144933;27;20470;-76
2023/05/28 02:53:01;;;;;;;8.20;6.50;;;;;;;;;;5149219;27;20446;-77
2023/05/28 02:55:29;;;;;;;10.40;7.40;;;;;;;;;;5147611;27;20445;-76
2023/05/28 02:57:57;;;;;;;9.47;7.00;;;;;;;;;;5144236;27;20471;-76
2023/05/28 03:00:26;;;;;;;9.37;7.50;;;;;;;;;;5140566;27;20776;-77
2023/05/28 03:02:58;;;;;;;11.60;7.53;;;;;;;;;;5140460;27;20487;-78
2023/05/28 03:05:32;;;;;;;8.13;7.43;;;;;;;;;;5140891;27;20977;-76
2023/05/28 03:08:09;;;;;;;8.40;6.77;;;;;;;;;;5141677;27;20461;-76
2023/05/28 03:10:41;;;;;;;7.80;7.00;;;;;;;;;;5142468;27;20461;-75
2023/05/28 03:13:09;;;;;;;11.60;7.80;;;;;;;;;;5144139;27;20436;-76
2023/05/28 03:15:36;;;;;;;9.47;7.03;;;;;;;;;;5144821;27;20454;-77
2023/05/28 03:18:06;;;;;;;11.87;8.00;;;;;;;;;;5145275;27;20537;-79
2023/05/28 03:20:34;;;;;;;9.03;7.90;;;;;;;;;;5128014;27;20497;-76
2023/05/28 03:23:02;;;;;;;8.90;7.40;;;;;;;;;;5123682;28;20447;-77
2023/05/28 03:25:34;;;;;;;9.10;7.70;;;;;;;;;;5118568;28;20439;-77
2023/05/28 03:28:06;;;;;;;8.90;8.00;;;;;;;;;;5116362;28;20993;-78
2023/05/28 03:30:34;;;;;;;11.33;8.43;;;;;;;;;;5114939;28;20451;-76
2023/05/28 03:33:02;;;;;;;9.30;8.33;;;;;;;;;;5114460;28;20458;-76
2023/05/28 03:35:37;;;;;;;9.80;7.40;;;;;;;;;;5115203;28;20459;-76
2023/05/28 03:38:05;;;;;;;8.33;7.07;;;;;;;;;;5114138;28;20446;-77
2023/05/28 03:40:35;;;;;;;11.63;7.80;;;;;;;;;;5113354;28;20558;-76
2023/05/28 03:43:09;;;;;;;8.83;7.33;;;;;;;;;;5113075;28;20451;-76
2023/05/28 03:45:37;;;;;;;8.53;7.63;;;;;;;;;;5113330;28;20450;-76
2023/05/28 03:48:06;;;;;;;9.47;7.70;;;;;;;;;;5133483;27;20473;-76
2023/05/28 03:50:36;;;;;;;11.93;7.70;;;;;;;;;;5136368;27;20541;-77
2023/05/28 03:53:04;;;;;;;7.97;7.13;;;;;;;;;;5138645;27;20496;-76
2023/05/28 03:55:35;;;;;;;14.17;7.57;;;;;;;;;;5142552;27;20461;-78
2023/05/28 03:58:03;;;;;;;10.00;7.67;;;;;;;;;;5140853;27;20471;-75
2023/05/28 04:00:34;;;;;;;8.80;7.90;;;;;;;;;;5139284;27;20466;-76
2023/05/28 04:03:03;;;;;;;10.03;7.60;;;;;;;;;;5140756;27;20545;-78
2023/05/28 04:05:33;;;;;;;10.10;7.53;;;;;;;;;;5140677;27;20458;-77
2023/05/28 04:08:03;;;;;;;9.13;6.80;;;;;;;;;;5139971;27;20894;-75
2023/05/28 04:10:31;;;;;;;12.00;7.53;;;;;;;;;;5140521;27;20466;-76
2023/05/28 04:12:59;;;;;;;10.27;7.97;;;;;;;;;;5138188;27;20514;-78
2023/05/28 04:15:27;;;;;;;9.10;8.10;;;;;;;;;;5139536;27;20450;-76
2023/05/28 04:17:54;;;;;;;10.73;7.67;;;;;;;;;;5139593;27;20438;-77
2023/05/28 04:20:27;;;;;;;11.13;7.93;;;;;;;;;;5125027;27;20465;-76
2023/05/28 04:22:55;;;;;;;8.60;7.70;;;;;;;;;;5118709;28;20525;-78
2023/05/28 04:25:26;;;;;;;8.17;7.37;;;;;;;;;;5119716;28;20424;-76
2023/05/28 04:27:56;;;;;;;8.73;7.27;;;;;;;;;;5117777;28;20532;-77
2023/05/28 04:30:25;;;;;;;11.47;7.73;;;;;;;;;;5119523;28;20515;-77
2023/05/28 04:33:03;;;;;;;10.57;7.07;;;;;;;;;;5119928;28;20499;-77
2023/05/28 04:35:50;;;;;;;11.43;7.97;;;;;;;;;;5120502;27;20450;-76
2023/05/28 04:38:34;;;;;;;8.13;7.33;;;;;;;;;;5122909;28;20423;-76
2023/05/28 04:41:05;;;;;;;9.67;7.90;;;;;;;;;;5120141;28;20549;-76
2023/05/28 04:43:41;;;;;;;8.37;7.33;;;;;;;;;;5117064;28;20439;-75
2023/05/28 04:46:14;;;;;;;11.20;7.63;;;;;;;;;;5118219;28;20530;-76
2023/05/28 04:48:42;;;;;;;9.43;7.90;;;;;;;;;;5118489;28;20913;-77
2023/05/28 04:54:04;;;;;;;11.93;7.43;;;;;;;;;;5117024;28;20434;-76
2023/05/28 04:56:34;;;;;;;9.93;8.17;;;;;;;;;;5120714;28;20431;-77
2023/05/28 04:59:11;;;;;;;9.80;8.17;;;;;;;;;;5117662;28;20467;-75
2023/05/28 05:01:53;;;;;;;10.43;7.47;;;;;;;;;;5117568;28;20461;-76
2023/05/28 05:04:26;;;;;;;13.10;7.60;;;;;;;;;;5116992;28;20449;-76
2023/05/28 05:06:54;;;;;;;10.03;8.00;;;;;;;;;;5117623;28;20514;-77
2023/05/28 05:09:23;;;;;;;14.70;8.40;;;;;;;;;;5117198;28;20490;-77
2023/05/28 05:11:52;;;;;;;11.80;8.23;;;;;;;;;;5118976;28;20475;-77
2023/05/28 05:14:20;;;;;;;12.43;7.30;;;;;;;;;;5120205;28;20472;-76
2023/05/28 05:16:49;;;;;;;13.27;8.90;;;;;;;;;;5118729;28;20430;-78
2023/05/28 05:19:17;;;;;;;11.37;7.63;;;;;;;;;;5118031;28;20448;-78
2023/05/28 05:21:47;;;;;;;11.10;7.87;;;;;;;;;;5119438;28;20455;-76
2023/05/28 05:24:21;;;;;;;11.50;8.47;;;;;;;;;;5121013;28;20465;-77
2023/05/28 05:29:44;;;;;;;13.50;8.70;;;;;;;;;;5111592;28;20487;-76
2023/05/28 05:32:19;;;;;;;9.87;7.23;;;;;;;;;;5118193;27;20500;-76
2023/05/28 05:37:37;;;;;;;11.00;8.53;;;;;;;;;;5053196;28;20504;-78
2023/05/28 05:40:17;;;;;;;10.10;8.00;;;;;;;;;;5108126;28;20561;-77
2023/05/28 05:42:50;;;;;;;8.97;8.00;;;;;;;;;;5114862;28;20471;-76
2023/05/28 05:45:30;;;;;;;8.87;7.37;;;;;;;;;;5114999;28;20451;-77
2023/05/28 05:48:17;;;;;;;9.00;7.90;;;;;;;;;;5114295;28;20585;-76
2023/05/28 05:50:51;;;;;;;12.57;7.60;;;;;;;;;;5104047;27;20985;-78
2023/05/28 05:53:20;;;;;;;12.20;7.77;;;;;;;;;;5114820;28;20529;-78
2023/05/28 05:56:04;;;;;;;10.33;7.73;;;;;;;;;;5115191;28;20442;-77
2023/05/28 05:58:45;;;;;;;11.67;7.33;;;;;;;;;;5114164;28;20480;-76
2023/05/28 06:01:16;;;;;;;8.47;7.57;;;;;;;;;;5118574;27;20494;-77
2023/05/28 06:03:47;;;;;;;8.13;7.33;;;;;;;;;;5139125;27;20437;-77
2023/05/28 06:06:29;;;;;;;9.53;6.60;;;;;;;;;;5138322;27;20462;-77
2023/05/28 06:09:02;;;;;;;8.77;6.63;;;;;;;;;;5137570;27;21102;-78
2023/05/28 06:11:33;;;;;;;7.40;6.43;;;;;;;;;;5138121;27;20553;-77
2023/05/28 06:14:03;;;;;;;11.90;6.93;;;;;;;;;;5136415;27;20945;-76
2023/05/28 06:16:40;;;;;;;10.80;7.03;;;;;;;;;;5137973;27;20457;-76
2023/05/28 06:19:22;;;;;;;;;;;;;;;;;;;;;
2023/05/28 06:22:28;;;;;;;9.57;7.03;;;;;;;;;;5139933;27;20465;-77
2023/05/28 06:34:14;;;;;;;8.43;6.80;;;;;;;;;;5016358;28;20983;-76
2023/05/28 06:40:20;;;;;;;8.40;6.90;;;;;;;;;;5047113;28;20977;-77
2023/05/28 06:42:49;;;;;;;6.73;6.00;;;;;;;;;;5074999;28;20516;-75
2023/05/28 06:51:00;;;;;;;9.37;6.70;;;;;;;;;;5138659;27;20484;-76
2023/05/28 06:56:16;;;;;;;9.63;6.17;;;;;;;;;;5119140;27;20452;-76
2023/05/28 06:58:48;;;;;;;10.23;6.57;;;;;;;;;;5137884;27;20869;-76
2023/05/28 07:01:16;;;;;;;10.70;6.97;;;;;;;;;;5135770;27;20476;-77
2023/05/28 07:03:47;;;;;;;7.33;5.97;;;;;;;;;;5132758;27;20426;-75
2023/05/28 07:06:14;;;;;;;8.40;5.53;;;;;;;;;;5132089;27;20446;-76
2023/05/28 07:08:44;;;;;;;5.90;5.40;;;;;;;;;;5132488;27;20474;-76
2023/05/28 07:11:12;;;;;;;12.07;10.00;;;;;;;;;;5132755;27;20476;-77
2023/05/28 07:13:44;;;;;;;6.77;6.10;;;;;;;;;;5133257;27;20886;-77
2023/05/28 07:16:12;;;;;;;6.80;5.37;;;;;;;;;;5136129;27;20830;-76
2023/05/28 07:18:42;;;;;;;11.27;6.00;;;;;;;;;;5138200;27;20941;-76
2023/05/28 07:21:12;;;;;;;7.20;5.90;;;;;;;;;;5120852;27;20465;-77
2023/05/28 07:23:46;;;;;;;8.73;5.73;;;;;;;;;;5134522;27;20945;-77
2023/05/28 07:26:18;;;;;;;8.90;5.80;;;;;;;;;;5137590;27;20457;-76
2023/05/28 07:28:54;;;;;;;7.30;5.23;;;;;;;;;;5138586;27;20992;-76
2023/05/28 07:31:22;;;;;;;7.20;5.63;;;;;;;;;;5136284;27;20493;-76
2023/05/28 07:33:50;;;;;;;9.87;5.50;;;;;;;;;;5139059;27;20458;-77
2023/05/28 07:36:20;;;;;;;9.13;6.50;;;;;;;;;;5139815;27;20434;-76
2023/05/28 07:38:47;;;;;;;7.07;5.97;;;;;;;;;;5141881;27;20433;-78
2023/05/28 07:41:15;;;;;;;9.20;5.97;;;;;;;;;;5135742;27;20466;-76
2023/05/28 07:43:43;;;;;;;10.07;5.77;;;;;;;;;;5134516;27;20541;-76
2023/05/28 07:46:25;;;;;;;;;;;;;;;;;;;;;
2023/05/28 07:48:53;;;;;;;10.33;5.43;;;;;;;;;;5134026;27;20466;-76
2023/05/28 07:51:22;;;;;;;6.00;4.97;;;;;;;;;;5132984;27;20508;-77
2023/05/28 07:53:57;;;;;;;6.57;4.80;;;;;;;;;;5133853;27;20503;-77
2023/05/28 07:56:26;;;;;;;9.30;6.60;;;;;;;;;;5134684;27;20441;-77
2023/05/28 08:01:41;;;;;;;8.47;5.80;;;;;;;;;;5134040;27;20462;-76
2023/05/28 08:04:09;;;;;;;7.67;5.20;;;;;;;;;;5133961;27;20468;-76
2023/05/28 08:06:38;;;;;;;7.97;5.80;;;;;;;;;;5138709;27;20427;-77
2023/05/28 08:09:06;;;;;;;9.97;6.13;;;;;;;;;;5139767;27;20462;-76
2023/05/28 08:11:34;;;;;;;9.13;5.80;;;;;;;;;;5139101;27;20466;-78
2023/05/28 08:14:02;;;;;;;7.13;5.43;;;;;;;;;;5138564;27;20452;-76
2023/05/28 08:16:30;;;;;;;9.80;5.83;;;;;;;;;;5137185;27;20448;-76
2023/05/28 08:19:01;;;;;;;6.30;5.60;;;;;;;;;;5135054;27;20446;-77
2023/05/28 08:21:29;;;;;;;6.83;5.87;;;;;;;;;;5116676;28;21000;-76
2023/05/28 08:23:58;;;;;;;7.77;6.00;;;;;;;;;;5116588;28;20941;-76
2023/05/28 08:26:28;;;;;;;8.07;6.00;;;;;;;;;;5117835;28;20477;-77
2023/05/28 08:29:00;;;;;;;7.50;5.20;;;;;;;;;;5120241;28;20599;-77
2023/05/28 08:31:27;;;;;;;7.93;5.93;;;;;;;;;;5123912;28;20466;-76
2023/05/28 08:33:56;;;;;;;8.30;6.83;;;;;;;;;;5126200;28;20510;-76
2023/05/28 08:36:26;;;;;;;6.30;5.60;;;;;;;;;;5121154;28;20450;-77
2023/05/28 08:38:54;;;;;;;8.83;5.67;;;;;;;;;;5119194;28;20435;-76
2023/05/28 08:41:29;;;;;;;8.57;6.20;;;;;;;;;;5119437;28;21008;-77
2023/05/28 08:43:57;;;;;;;9.20;5.93;;;;;;;;;;5118500;28;20496;-77
2023/05/28 08:46:25;;;;;;;11.63;6.93;;;;;;;;;;5118040;28;20454;-76
2023/05/28 08:48:55;;;;;;;8.17;5.83;;;;;;;;;;5119078;28;20471;-76
2023/05/28 08:51:25;;;;;;;6.83;5.73;;;;;;;;;;5136802;27;20465;-76
2023/05/28 08:53:53;;;;;;;7.40;5.30;;;;;;;;;;5133533;27;20442;-75
2023/05/28 08:56:22;;;;;;;10.03;6.00;;;;;;;;;;5139317;27;20538;-76
2023/05/28 08:58:52;;;;;;;8.20;5.40;;;;;;;;;;5130834;27;20422;-76
2023/05/28 09:01:19;;;;;;;8.57;6.03;;;;;;;;;;5140424;27;20468;-76
2023/05/28 09:03:47;;;;;;;9.87;6.40;;;;;;;;;;5143831;27;20526;-76
2023/05/28 09:06:15;;;;;;;8.40;6.40;;;;;;;;;;5139204;27;20849;-75
2023/05/28 09:08:46;;;;;;;6.73;5.80;;;;;;;;;;5133690;27;20843;-75
2023/05/28 09:11:17;;;;;;;9.30;6.20;;;;;;;;;;5130581;27;20463;-74
2023/05/28 09:13:46;;;;;;;6.50;5.53;;;;;;;;;;5126903;27;20438;-77
2023/05/28 09:16:21;;;;;;;7.13;5.50;;;;;;;;;;5124351;27;20513;-77
2023/05/28 09:18:51;;;;;;;7.20;5.20;;;;;;;;;;5127882;27;20437;-75
2023/05/28 09:21:20;;;;;;;9.40;6.27;;;;;;;;;;5127438;27;20457;-76
2023/05/28 09:23:53;;;;;;;7.00;5.37;;;;;;;;;;5118132;28;20447;-76
2023/05/28 09:26:27;;;;;;;7.33;5.37;;;;;;;;;;5117967;28;20447;-76
2023/05/28 09:28:55;;;;;;;5.67;5.17;;;;;;;;;;5116871;28;20508;-76
2023/05/28 09:31:35;;;;;;;8.90;5.57;;;;;;;;;;5118023;28;20467;-76
2023/05/28 09:34:13;;;;;;;8.00;5.80;;;;;;;;;;5118731;28;20464;-76
2023/05/28 09:36:42;;;;;;;7.20;4.87;;;;;;;;;;5115907;27;20462;-77
2023/05/28 09:39:17;;;;;;;7.23;5.20;;;;;;;;;;5116450;28;20455;-76
2023/05/28 09:41:48;;;;;;;6.97;5.20;;;;;;;;;;5116605;28;20502;-75
2023/05/28 09:44:16;;;;;;;8.37;4.97;;;;;;;;;;5115703;28;20451;-75
2023/05/28 09:46:48;;;;;;;14.40;5.90;;;;;;;;;;5118498;27;20731;-75
2023/05/28 09:49:25;;;;;;;7.70;4.57;;;;;;;;;;5121196;28;20475;-77
2023/05/28 09:52:11;;;;;;;6.40;5.00;;;;;;;;;;5120641;28;20463;-76
2023/05/28 09:54:49;;;;;;;9.40;5.93;;;;;;;;;;5122368;28;20506;-77
2023/05/28 09:57:25;;;;;;;10.00;5.07;;;;;;;;;;5126003;28;20430;-74
2023/05/28 09:59:55;;;;;;;7.30;5.23;;;;;;;;;;5123647;28;20446;-77
2023/05/28 10:02:31;;;;;;;6.43;4.80;;;;;;;;;;5120690;28;20458;-76
2023/05/28 10:05:04;;;;;;;7.63;4.97;;;;;;;;;;5123165;28;20419;-76
2023/05/28 10:07:38;;;;;;;6.67;5.53;;;;;;;;;;5123674;28;20450;-76
2023/05/28 10:10:08;;;;;;;5.73;5.13;;;;;;;;;;5123067;28;20815;-78
2023/05/28 10:12:38;;;;;;;8.60;4.93;;;;;;;;;;5125911;28;20446;-76
2023/05/28 10:15:06;;;;;;;6.50;5.90;;;;;;;;;;5127718;28;20499;-76
2023/05/28 10:17:42;;;;;;;8.87;5.67;;;;;;;;;;5126939;28;20446;-76
2023/05/28 10:20:11;;;;;;;5.83;4.67;;;;;;;;;;5117492;28;20463;-76
2023/05/28 10:22:42;;;;;;;5.20;4.70;;;;;;;;;;5115498;27;20447;-76
2023/05/28 10:25:17;;;;;;;7.07;5.40;;;;;;;;;;5113919;28;20523;-76
2023/05/28 10:27:48;;;;;;;7.27;5.70;;;;;;;;;;5114044;28;20439;-76
2023/05/28 10:30:32;;;;;;;7.33;4.47;;;;;;;;;;5114839;28;20478;-76
2023/05/28 10:33:01;;;;;;;6.00;5.30;;;;;;;;;;5115359;28;20450;-79
2023/05/28 10:35:28;;;;;;;9.43;5.67;;;;;;;;;;5114499;28;20530;-75
2023/05/28 10:38:06;;;;;;;7.37;5.60;;;;;;;;;;5114705;28;20447;-76
2023/05/28 10:40:34;;;;;;;7.20;5.40;;;;;;;;;;5115081;28;20494;-76
2023/05/28 10:43:02;;;;;;;9.00;5.13;;;;;;;;;;5114662;28;20451;-74
2023/05/28 10:45:40;;;;;;;7.20;4.90;;;;;;;;;;5114441;28;20454;-78
2023/05/28 10:48:17;;;;;;;8.10;5.70;;;;;;;;;;5115757;28;20938;-78
2023/05/28 10:50:58;;;;;;;5.30;4.67;;;;;;;;;;5113736;28;20984;-76
2023/05/28 10:53:26;;;;;;;10.33;5.57;;;;;;;;;;5116191;28;20615;-76
2023/05/28 10:55:54;;;;;;;6.17;5.37;;;;;;;;;;5118908;28;20447;-77
2023/05/28 10:58:26;;;;;;;6.10;4.70;;;;;;;;;;5127460;28;20439;-75
2023/05/28 11:00:55;;;;;;;7.87;5.43;;;;;;;;;;5130959;28;20454;-75
2023/05/28 11:03:41;;;;;;;7.47;4.97;;;;;;;;;;5130961;28;20431;-77
2023/05/28 11:06:10;;;;;;;5.90;5.03;;;;;;;;;;5131248;28;20439;-76
2023/05/28 11:08:45;;;;;;;7.00;5.67;;;;;;;;;;5132469;28;20449;-76
2023/05/28 11:11:13;;;;;;;6.50;5.13;;;;;;;;;;5131702;28;20538;-76
2023/05/28 11:13:43;;;;;;;6.63;4.50;;;;;;;;;;5128722;28;20475;-76
2023/05/28 11:16:11;;;;;;;9.13;5.10;;;;;;;;;;5129442;28;20533;-75
2023/05/28 11:18:40;;;;;;;8.17;5.60;;;;;;;;;;5125572;28;20445;-79
2023/05/28 11:21:08;;;;;;;6.90;5.50;;;;;;;;;;5116372;28;20443;-77
2023/05/28 11:23:38;;;;;;;5.80;5.20;;;;;;;;;;5115523;28;20963;-77
2023/05/28 11:26:16;;;;;;;;;;;;;;;;;;;;;
2023/05/28 11:28:50;;;;;;;6.20;5.60;;;;;;;;;;5132031;27;20436;-75
2023/05/28 11:31:19;;;;;;;7.57;5.47;;;;;;;;;;5137520;27;20500;-76
2023/05/28 11:33:50;;;;;;;9.53;6.60;;;;;;;;;;5128575;27;20997;-77
2023/05/28 11:36:17;;;;;;;7.03;5.00;;;;;;;;;;5129241;27;20448;-76
2023/05/28 11:38:46;;;;;;;7.60;4.53;;;;;;;;;;5132777;27;20508;-78
2023/05/28 11:41:14;;;;;;;7.43;4.60;;;;;;;;;;5136655;27;20446;-77
2023/05/28 11:43:42;;;;;;;7.37;5.10;;;;;;;;;;5131328;27;20427;-79
2023/05/28 11:46:10;;;;;;;5.23;4.73;;;;;;;;;;5124726;27;20435;-77
2023/05/28 11:48:39;;;;;;;9.63;5.00;;;;;;;;;;5118954;28;20435;-76
2023/05/28 11:51:07;;;;;;;6.33;4.70;;;;;;;;;;5116552;28;20887;-78
2023/05/28 11:53:41;;;;;;;6.23;4.73;;;;;;;;;;5121460;28;20518;-78
2023/05/28 11:56:11;;;;;;;8.27;5.47;;;;;;;;;;5120487;28;20447;-76
2023/05/28 11:58:43;;;;;;;6.50;4.80;;;;;;;;;;5119827;28;20447;-75
2023/05/28 12:01:14;;;;;;;6.10;4.80;;;;;;;;;;5116538;28;20462;-75
2023/05/28 12:03:42;;;;;;;5.20;4.70;;;;;;;;;;5117891;28;20438;-76
2023/05/28 12:06:10;;;;;;;4.70;4.20;;;;;;;;;;5116538;28;20455;-78
2023/05/28 12:08:40;;;;;;;5.10;4.60;;;;;;;;;;5113320;28;20451;-77
2023/05/28 12:11:11;;;;;;;6.13;5.10;;;;;;;;;;5114664;28;20540;-77
2023/05/28 12:13:39;;;;;;;6.53;4.80;;;;;;;;;;5112485;28;21101;-77
2023/05/28 12:16:11;;;;;;;10.43;4.57;;;;;;;;;;5113812;28;20447;-77
2023/05/28 12:18:43;;;;;;;8.27;4.70;;;;;;;;;;5114730;28;20447;-76
2023/05/28 12:21:18;;;;;;;5.87;4.60;;;;;;;;;;5115529;28;20542;-75
2023/05/28 12:23:47;;;;;;;5.00;4.50;;;;;;;;;;5121683;28;20515;-75
2023/05/28 12:26:18;;;;;;;6.13;4.70;;;;;;;;;;5123588;28;20483;-74
2023/05/28 12:28:46;;;;;;;6.00;4.40;;;;;;;;;;5121078;28;20515;-77
2023/05/28 12:31:15;;;;;;;8.00;5.10;;;;;;;;;;5119820;28;20510;-74
2023/05/28 12:33:42;;;;;;;6.13;5.13;;;;;;;;;;5115175;28;20942;-76
2023/05/28 12:36:11;;;;;;;8.27;4.97;;;;;;;;;;5116711;28;20457;-77
2023/05/28 12:38:41;;;;;;;7.03;5.23;;;;;;;;;;5113117;28;20439;-76
2023/05/28 12:41:09;;;;;;;7.70;5.60;;;;;;;;;;5112179;28;20490;-76
2023/05/28 12:43:39;;;;;;;5.20;4.70;;;;;;;;;;5110936;28;20550;-76
2023/05/28 12:46:12;;;;;;;6.77;5.03;;;;;;;;;;5110355;28;20982;-78
2023/05/28 12:48:40;;;;;;;5.33;4.83;;;;;;;;;;5111661;28;20470;-76
2023/05/28 12:51:09;;;;;;;5.13;4.37;;;;;;;;;;5111269;28;20479;-77
2023/05/28 12:53:37;;;;;;;6.03;4.73;;;;;;;;;;5114907;28;20459;-77
2023/05/28 12:56:05;;;;;;;6.73;4.83;;;;;;;;;;5114724;28;20450;-77
2023/05/28 12:58:33;;;;;;;7.60;4.70;;;;;;;;;;5114672;28;20488;-75
2023/05/28 13:01:02;;;;;;;8.30;4.53;;;;;;;;;;5132695;27;20523;-77
2023/05/28 13:03:32;;;;;;;5.40;4.90;;;;;;;;;;5134837;27;20446;-77
2023/05/28 13:06:03;;;;;;;6.00;4.70;;;;;;;;;;5135220;27;20445;-76
2023/05/28 13:08:31;;;;;;;6.67;4.93;;;;;;;;;;5135282;27;20438;-77
2023/05/28 13:10:58;;;;;;;6.07;5.30;;;;;;;;;;5134840;27;21059;-78
2023/05/28 13:13:26;;;;;;;6.10;4.80;;;;;;;;;;5134563;27;20851;-75
2023/05/28 13:15:54;;;;;;;5.80;4.40;;;;;;;;;;5134868;27;20749;-75
2023/05/28 13:18:24;;;;;;;6.63;5.13;;;;;;;;;;5135141;27;20496;-76
2023/05/28 13:20:52;;;;;;;7.47;4.87;;;;;;;;;;5134919;27;20469;-78
2023/05/28 13:23:30;;;;;;;7.00;6.10;;;;;;;;;;5135887;27;20866;-77
2023/05/28 13:25:57;;;;;;;5.50;4.90;;;;;;;;;;5134796;27;21027;-77
2023/05/28 13:28:25;;;;;;;5.70;4.90;;;;;;;;;;5135533;27;20442;-78
2023/05/28 13:30:54;;;;;;;6.60;5.10;;;;;;;;;;5134668;27;20501;-77
2023/05/28 13:33:23;;;;;;;6.40;4.67;;;;;;;;;;5134717;27;20450;-77
2023/05/28 13:35:51;;;;;;;5.40;4.63;;;;;;;;;;5134874;27;20461;-77
2023/05/28 13:38:19;;;;;;;5.53;4.90;;;;;;;;;;5134941;27;20469;-76
2023/05/28 13:40:46;;;;;;;5.97;5.37;;;;;;;;;;5134387;27;20515;-76
2023/05/28 13:43:14;;;;;;;4.87;4.37;;;;;;;;;;5135087;27;20614;-75
2023/05/28 13:45:45;;;;;;;6.27;4.50;;;;;;;;;;5134750;27;20925;-76
2023/05/28 13:48:19;;;;;;;7.50;5.03;;;;;;;;;;5134622;27;20518;-75
2023/05/28 13:50:48;;;;;;;7.37;5.57;;;;;;;;;;5134289;27;20469;-75
2023/05/28 13:53:16;;;;;;;7.50;5.07;;;;;;;;;;5134737;27;20525;-77
2023/05/28 13:55:44;;;;;;;5.63;5.10;;;;;;;;;;5134686;27;20502;-75
2023/05/28 13:58:12;;;;;;;5.63;4.47;;;;;;;;;;5134562;27;20453;-78
2023/05/28 14:00:41;;;;;;;5.07;4.57;;;;;;;;;;5135440;27;20469;-77
2023/05/28 14:03:13;;;;;;;5.60;4.63;;;;;;;;;;5133656;27;20450;-78
2023/05/28 14:05:41;;;;;;;4.63;4.20;;;;;;;;;;5139425;27;20514;-75
2023/05/28 14:08:14;;;;;;;5.37;4.50;;;;;;;;;;5138536;27;20438;-77
2023/05/28 14:10:42;;;;;;;6.53;5.13;;;;;;;;;;5137569;27;20477;-76
2023/05/28 14:13:09;;;;;;;5.90;4.97;;;;;;;;;;5134996;27;20955;-76
2023/05/28 14:15:38;;;;;;;8.10;5.30;;;;;;;;;;5135013;27;20454;-76
2023/05/28 14:18:07;;;;;;;5.67;4.70;;;;;;;;;;5135384;27;20532;-76
2023/05/28 14:20:37;;;;;;;6.00;5.13;;;;;;;;;;5135871;27;20468;-75
2023/05/28 14:23:07;;;;;;;5.70;4.70;;;;;;;;;;5137496;27;20435;-77
2023/05/28 14:25:45;;;;;;;6.10;5.23;;;;;;;;;;5135663;27;20446;-76
2023/05/28 14:28:13;;;;;;;5.03;4.53;;;;;;;;;;5136292;27;20456;-79
2023/05/28 14:30:44;;;;;;;6.60;4.83;;;;;;;;;;5136074;27;20984;-77
2023/05/28 14:33:12;;;;;;;4.90;4.40;;;;;;;;;;5137482;27;20453;-76
2023/05/28 14:35:40;;;;;;;5.20;4.70;;;;;;;;;;5137021;27;20446;-76
2023/05/28 14:38:08;;;;;;;5.60;5.10;;;;;;;;;;5137064;27;20456;-77
2023/05/28 14:40:40;;;;;;;6.17;4.90;;;;;;;;;;5138818;27;20577;-78
2023/05/28 14:43:10;;;;;;;7.40;5.13;;;;;;;;;;5136864;27;21018;-79
2023/05/28 14:45:37;;;;;;;5.80;4.60;;;;;;;;;;5135411;27;20450;-78
2023/05/28 14:48:06;;;;;;;5.57;4.30;;;;;;;;;;5137666;27;20482;-80
2023/05/28 14:50:38;;;;;;;6.93;5.33;;;;;;;;;;5138577;27;20560;-75
2023/05/28 14:53:06;;;;;;;5.47;4.70;;;;;;;;;;5141995;27;20430;-77
2023/05/28 14:55:37;;;;;;;5.30;4.30;;;;;;;;;;5136986;27;20517;-76
2023/05/28 14:58:05;;;;;;;5.73;5.20;;;;;;;;;;5137640;27;20450;-76
2023/05/28 15:00:34;;;;;;;5.27;4.77;;;;;;;;;;5137038;27;20496;-77
2023/05/28 15:03:05;;;;;;;5.17;4.70;;;;;;;;;;5137485;27;20457;-76
2023/05/28 15:05:34;;;;;;;5.27;4.77;;;;;;;;;;5136012;27;20955;-75
2023/05/28 15:08:03;;;;;;;5.60;5.10;;;;;;;;;;5136455;27;20540;-77
2023/05/28 15:10:31;;;;;;;6.60;5.17;;;;;;;;;;5136972;27;20996;-77
2023/05/28 15:12:59;;;;;;;8.90;4.80;;;;;;;;;;5136947;27;20449;-77
2023/05/28 15:15:30;;;;;;;5.10;4.60;;;;;;;;;;5137086;27;20893;-75
2023/05/28 15:17:58;;;;;;;8.80;5.27;;;;;;;;;;5136945;27;20442;-75
2023/05/28 15:20:27;;;;;;;6.80;5.00;;;;;;;;;;5127145;27;20462;-77
2023/05/28 15:22:54;;;;;;;4.87;4.30;;;;;;;;;;5124499;28;20443;-78
2023/05/28 15:25:23;;;;;;;6.70;4.90;;;;;;;;;;5116628;28;20445;-78
2023/05/28 15:27:52;;;;;;;5.50;4.77;;;;;;;;;;5115203;28;20454;-79
2023/05/28 15:30:20;;;;;;;5.70;5.10;;;;;;;;;;5114125;28;20446;-78
2023/05/28 15:32:48;;;;;;;5.10;4.60;;;;;;;;;;5114050;28;20502;-77
2023/05/28 15:35:18;;;;;;;6.30;5.17;;;;;;;;;;5114989;28;20475;-76